Pagina principale
METAR-TAF:

METAR-TAF

Aeroporti :

Sussex Airport

Sussex, New Jersey, Stati Uniti

latitudine: 41-12-01N, longitudine: 074-37-23W, altezza: 128 m

Osservazione

Il bollettino è stato emesso 1 ora e 16 minuti fa, alle 20:53 UTC
Vento 6 kt da ovest/nord-ovest
Temperature 6°C
Umidità 61%
Pressione 1013 hPa
Visibilità: 16.1 km
Poco nuvoloso ad un'altezza di 4100 ft

METAR: KFWN 202053Z AUTO 29006KT 10SM FEW041 06/M01 A2991 RMK AO2 SLP132 T00561011 53013

Ora: 17:09 (22:09 UTC)


TAF: mancante

Osservazioni e previsioni meteorologiche di più di 4000 aeroporti (messaggi METAR e TAF).

Le stazioni disponibili sono rappresentate dai dischi gialli e rossi sulla carta.

Puntare il mouse per vedere il nome della stazione.

Clicca sopra per visualizzare le osservazioni e previsioni meteorologiche.

Per cambiare la mappa : fare clic sui pulsanti verdi con una croce nera per ingrandire, il pulsante verde con un trattino per diminuire, o sulla freccia verde per le mappe adiacenti.


METAR-TAF: